sensor_id;sensor_type;location;lat;lon;timestamp;temperature;humidity
4390;DHT22;2209;48.982;8.406;2024-01-07T00:01:33;6.70;99.90
4390;DHT22;2209;48.982;8.406;2024-01-07T00:03:55;6.80;99.90
4390;DHT22;2209;48.982;8.406;2024-01-07T00:06:17;6.80;99.90
4390;DHT22;2209;48.982;8.406;2024-01-07T00:08:39;6.80;99.90
4390;DHT22;2209;48.982;8.406;2024-01-07T00:11:01;6.70;99.90
4390;DHT22;2209;48.982;8.406;2024-01-07T00:13:23;6.80;99.90
4390;DHT22;2209;48.982;8.406;2024-01-07T00:15:45;6.80;99.90
4390;DHT22;2209;48.982;8.406;2024-01-07T00:18:09;6.80;99.90
4390;DHT22;2209;48.982;8.406;2024-01-07T00:20:31;6.80;99.90
4390;DHT22;2209;48.982;8.406;2024-01-07T00:22:53;6.80;99.90
4390;DHT22;2209;48.982;8.406;2024-01-07T00:25:15;6.80;99.90
4390;DHT22;2209;48.982;8.406;2024-01-07T00:27:39;6.80;99.90
4390;DHT22;2209;48.982;8.406;2024-01-07T00:30:01;6.80;99.90
4390;DHT22;2209;48.982;8.406;2024-01-07T00:32:25;6.80;99.90
4390;DHT22;2209;48.982;8.406;2024-01-07T00:34:49;6.80;99.90
4390;DHT22;2209;48.982;8.406;2024-01-07T00:37:11;6.70;99.90
4390;DHT22;2209;48.982;8.406;2024-01-07T00:39:33;6.60;99.90
4390;DHT22;2209;48.982;8.406;2024-01-07T00:41:55;6.50;99.90
4390;DHT22;2209;48.982;8.406;2024-01-07T00:44:17;6.50;99.90
4390;DHT22;2209;48.982;8.406;2024-01-07T00:46:39;6.50;99.90
4390;DHT22;2209;48.982;8.406;2024-01-07T00:49:01;6.50;99.90
4390;DHT22;2209;48.982;8.406;2024-01-07T00:51:24;6.50;99.90
4390;DHT22;2209;48.982;8.406;2024-01-07T00:53:46;6.50;99.90
4390;DHT22;2209;48.982;8.406;2024-01-07T00:56:08;6.50;99.90
4390;DHT22;2209;48.982;8.406;2024-01-07T00:58:30;6.40;99.90
4390;DHT22;2209;48.982;8.406;2024-01-07T01:00:52;6.30;99.90
4390;DHT22;2209;48.982;8.406;2024-01-07T01:03:15;6.30;99.90
4390;DHT22;2209;48.982;8.406;2024-01-07T01:05:37;6.20;99.90
4390;DHT22;2209;48.982;8.406;2024-01-07T01:08:00;6.20;99.90
4390;DHT22;2209;48.982;8.406;2024-01-07T01:10:22;6.20;99.90
4390;DHT22;2209;48.982;8.406;2024-01-07T01:12:44;6.20;99.90
4390;DHT22;2209;48.982;8.406;2024-01-07T01:15:06;6.20;99.90
4390;DHT22;2209;48.982;8.406;2024-01-07T01:17:29;6.20;99.90
4390;DHT22;2209;48.982;8.406;2024-01-07T01:19:51;6.20;99.90
4390;DHT22;2209;48.982;8.406;2024-01-07T01:22:13;6.30;99.90
4390;DHT22;2209;48.982;8.406;2024-01-07T01:24:37;6.30;99.90
4390;DHT22;2209;48.982;8.406;2024-01-07T01:27:00;6.20;99.90
4390;DHT22;2209;48.982;8.406;2024-01-07T01:29:22;6.20;99.90
4390;DHT22;2209;48.982;8.406;2024-01-07T01:31:44;6.20;99.90
4390;DHT22;2209;48.982;8.406;2024-01-07T01:34:06;6.30;99.90
4390;DHT22;2209;48.982;8.406;2024-01-07T01:36:27;6.40;99.90
4390;DHT22;2209;48.982;8.406;2024-01-07T01:38:49;6.40;99.90
4390;DHT22;2209;48.982;8.406;2024-01-07T01:41:12;6.40;99.90
4390;DHT22;2209;48.982;8.406;2024-01-07T01:43:34;6.50;99.90
4390;DHT22;2209;48.982;8.406;2024-01-07T01:45:56;6.50;99.90
4390;DHT22;2209;48.982;8.406;2024-01-07T01:48:18;6.50;99.90
4390;DHT22;2209;48.982;8.406;2024-01-07T01:50:41;6.50;99.90
4390;DHT22;2209;48.982;8.406;2024-01-07T01:53:03;6.60;99.90
4390;DHT22;2209;48.982;8.406;2024-01-07T01:55:25;6.60;99.90
4390;DHT22;2209;48.982;8.406;2024-01-07T01:57:49;6.50;99.90
4390;DHT22;2209;48.982;8.406;2024-01-07T02:00:13;6.60;99.90
4390;DHT22;2209;48.982;8.406;2024-01-07T02:02:35;6.60;99.90
4390;DHT22;2209;48.982;8.406;2024-01-07T02:04:57;6.60;99.90
4390;DHT22;2209;48.982;8.406;2024-01-07T02:07:19;6.60;99.90
4390;DHT22;2209;48.982;8.406;2024-01-07T02:09:41;6.50;99.90
4390;DHT22;2209;48.982;8.406;2024-01-07T02:12:04;6.50;99.90
4390;DHT22;2209;48.982;8.406;2024-01-07T02:14:28;6.50;99.90
4390;DHT22;2209;48.982;8.406;2024-01-07T02:16:50;6.50;99.90
4390;DHT22;2209;48.982;8.406;2024-01-07T02:19:12;6.40;99.90
4390;DHT22;2209;48.982;8.406;2024-01-07T02:21:34;6.40;99.90
4390;DHT22;2209;48.982;8.406;2024-01-07T02:23:56;6.40;99.90
4390;DHT22;2209;48.982;8.406;2024-01-07T02:26:19;6.40;99.90
4390;DHT22;2209;48.982;8.406;2024-01-07T02:28:41;6.40;99.90
4390;DHT22;2209;48.982;8.406;2024-01-07T02:31:04;6.40;99.90
4390;DHT22;2209;48.982;8.406;2024-01-07T02:33:26;6.40;99.90
4390;DHT22;2209;48.982;8.406;2024-01-07T02:35:48;6.40;99.90
4390;DHT22;2209;48.982;8.406;2024-01-07T02:38:10;6.40;99.90
4390;DHT22;2209;48.982;8.406;2024-01-07T02:40:32;6.50;99.90
4390;DHT22;2209;48.982;8.406;2024-01-07T02:42:56;6.50;99.90
4390;DHT22;2209;48.982;8.406;2024-01-07T02:45:19;6.50;99.90
4390;DHT22;2209;48.982;8.406;2024-01-07T02:47:41;6.50;99.90
4390;DHT22;2209;48.982;8.406;2024-01-07T02:50:03;6.50;99.90
4390;DHT22;2209;48.982;8.406;2024-01-07T02:52:25;6.50;99.90
4390;DHT22;2209;48.982;8.406;2024-01-07T02:54:47;6.50;99.90
4390;DHT22;2209;48.982;8.406;2024-01-07T02:57:09;6.50;99.90
4390;DHT22;2209;48.982;8.406;2024-01-07T02:59:33;6.50;99.90
4390;DHT22;2209;48.982;8.406;2024-01-07T03:01:55;6.50;99.90
4390;DHT22;2209;48.982;8.406;2024-01-07T03:04:17;6.50;99.90
4390;DHT22;2209;48.982;8.406;2024-01-07T03:06:40;6.50;99.90
4390;DHT22;2209;48.982;8.406;2024-01-07T03:09:02;6.40;99.90
4390;DHT22;2209;48.982;8.406;2024-01-07T03:11:24;6.40;99.90
4390;DHT22;2209;48.982;8.406;2024-01-07T03:13:46;6.40;99.90
4390;DHT22;2209;48.982;8.406;2024-01-07T03:16:19;6.40;99.90
4390;DHT22;2209;48.982;8.406;2024-01-07T03:18:41;6.40;99.90
4390;DHT22;2209;48.982;8.406;2024-01-07T03:21:04;6.40;99.90
4390;DHT22;2209;48.982;8.406;2024-01-07T03:23:26;6.40;99.90
4390;DHT22;2209;48.982;8.406;2024-01-07T03:25:48;6.40;99.90
4390;DHT22;2209;48.982;8.406;2024-01-07T03:28:10;6.40;99.90
4390;DHT22;2209;48.982;8.406;2024-01-07T03:30:32;6.40;99.90
4390;DHT22;2209;48.982;8.406;2024-01-07T03:32:55;6.30;99.90
4390;DHT22;2209;48.982;8.406;2024-01-07T03:35:17;6.40;99.90
4390;DHT22;2209;48.982;8.406;2024-01-07T03:37:39;6.30;99.90
4390;DHT22;2209;48.982;8.406;2024-01-07T03:40:02;6.30;99.90
4390;DHT22;2209;48.982;8.406;2024-01-07T03:42:24;6.20;99.90
4390;DHT22;2209;48.982;8.406;2024-01-07T03:44:46;6.30;99.90
4390;DHT22;2209;48.982;8.406;2024-01-07T03:47:08;6.30;99.90
4390;DHT22;2209;48.982;8.406;2024-01-07T03:49:31;6.30;99.90
4390;DHT22;2209;48.982;8.406;2024-01-07T03:51:53;6.40;99.90
4390;DHT22;2209;48.982;8.406;2024-01-07T03:54:15;6.30;99.90
4390;DHT22;2209;48.982;8.406;2024-01-07T03:56:37;6.30;99.90
4390;DHT22;2209;48.982;8.406;2024-01-07T03:58:59;6.40;99.90
4390;DHT22;2209;48.982;8.406;2024-01-07T04:01:21;6.30;99.90
4390;DHT22;2209;48.982;8.406;2024-01-07T04:03:43;6.40;99.90
4390;DHT22;2209;48.982;8.406;2024-01-07T04:06:07;6.40;99.90
4390;DHT22;2209;48.982;8.406;2024-01-07T04:08:29;6.40;99.90
4390;DHT22;2209;48.982;8.406;2024-01-07T04:10:52;6.40;99.90
4390;DHT22;2209;48.982;8.406;2024-01-07T04:13:14;6.40;99.90
4390;DHT22;2209;48.982;8.406;2024-01-07T04:15:36;6.40;99.90
4390;DHT22;2209;48.982;8.406;2024-01-07T04:18:01;6.40;99.90
4390;DHT22;2209;48.982;8.406;2024-01-07T04:20:23;6.40;99.90
4390;DHT22;2209;48.982;8.406;2024-01-07T04:22:46;6.40;99.90
4390;DHT22;2209;48.982;8.406;2024-01-07T04:25:08;6.40;99.90
4390;DHT22;2209;48.982;8.406;2024-01-07T04:27:31;6.40;99.90
4390;DHT22;2209;48.982;8.406;2024-01-07T04:29:53;6.50;99.90
4390;DHT22;2209;48.982;8.406;2024-01-07T04:32:15;6.50;99.90
4390;DHT22;2209;48.982;8.406;2024-01-07T04:34:37;6.50;99.90
4390;DHT22;2209;48.982;8.406;2024-01-07T04:36:59;6.50;99.90
4390;DHT22;2209;48.982;8.406;2024-01-07T04:39:23;6.40;99.90
4390;DHT22;2209;48.982;8.406;2024-01-07T04:41:45;6.30;99.90
4390;DHT22;2209;48.982;8.406;2024-01-07T04:44:07;6.20;99.90
4390;DHT22;2209;48.982;8.406;2024-01-07T04:46:29;6.10;99.90
4390;DHT22;2209;48.982;8.406;2024-01-07T04:48:51;6.10;99.90
4390;DHT22;2209;48.982;8.406;2024-01-07T04:51:13;6.10;99.90
4390;DHT22;2209;48.982;8.406;2024-01-07T04:53:35;6.00;99.90
4390;DHT22;2209;48.982;8.406;2024-01-07T04:55:59;6.00;99.90
4390;DHT22;2209;48.982;8.406;2024-01-07T04:58:21;6.00;99.90
4390;DHT22;2209;48.982;8.406;2024-01-07T05:00:43;6.00;99.90
4390;DHT22;2209;48.982;8.406;2024-01-07T05:03:05;6.00;99.90
4390;DHT22;2209;48.982;8.406;2024-01-07T05:05:27;6.00;99.90
4390;DHT22;2209;48.982;8.406;2024-01-07T05:07:49;6.00;99.90
4390;DHT22;2209;48.982;8.406;2024-01-07T05:10:11;6.00;99.90
4390;DHT22;2209;48.982;8.406;2024-01-07T05:12:34;6.00;99.90
4390;DHT22;2209;48.982;8.406;2024-01-07T05:14:56;6.10;99.90
4390;DHT22;2209;48.982;8.406;2024-01-07T05:17:18;6.10;99.90
4390;DHT22;2209;48.982;8.406;2024-01-07T05:19:40;6.10;99.90
4390;DHT22;2209;48.982;8.406;2024-01-07T05:22:03;6.20;99.90
4390;DHT22;2209;48.982;8.406;2024-01-07T05:24:24;6.20;99.90
4390;DHT22;2209;48.982;8.406;2024-01-07T05:26:46;6.20;99.90
4390;DHT22;2209;48.982;8.406;2024-01-07T05:29:09;6.20;99.90
4390;DHT22;2209;48.982;8.406;2024-01-07T05:31:32;6.20;99.90
4390;DHT22;2209;48.982;8.406;2024-01-07T05:33:54;6.20;99.90
4390;DHT22;2209;48.982;8.406;2024-01-07T05:36:16;6.20;99.90
4390;DHT22;2209;48.982;8.406;2024-01-07T05:38:38;6.20;99.90
4390;DHT22;2209;48.982;8.406;2024-01-07T05:41:00;6.20;99.90
4390;DHT22;2209;48.982;8.406;2024-01-07T05:43:22;6.20;99.90
4390;DHT22;2209;48.982;8.406;2024-01-07T05:45:45;6.10;99.90
4390;DHT22;2209;48.982;8.406;2024-01-07T05:48:07;6.10;99.90
4390;DHT22;2209;48.982;8.406;2024-01-07T05:50:29;6.20;99.90
4390;DHT22;2209;48.982;8.406;2024-01-07T05:52:51;6.20;99.90
4390;DHT22;2209;48.982;8.406;2024-01-07T05:55:13;6.20;99.90
4390;DHT22;2209;48.982;8.406;2024-01-07T05:57:35;6.20;99.90
4390;DHT22;2209;48.982;8.406;2024-01-07T05:59:57;6.20;99.90
4390;DHT22;2209;48.982;8.406;2024-01-07T06:02:21;6.20;99.90
4390;DHT22;2209;48.982;8.406;2024-01-07T06:04:43;6.20;99.90
4390;DHT22;2209;48.982;8.406;2024-01-07T06:07:06;6.20;99.90
4390;DHT22;2209;48.982;8.406;2024-01-07T06:09:28;6.20;99.90
4390;DHT22;2209;48.982;8.406;2024-01-07T06:11:50;6.30;99.90
4390;DHT22;2209;48.982;8.406;2024-01-07T06:14:12;6.30;99.90
4390;DHT22;2209;48.982;8.406;2024-01-07T06:16:34;6.30;99.90
4390;DHT22;2209;48.982;8.406;2024-01-07T06:18:57;6.30;99.90
4390;DHT22;2209;48.982;8.406;2024-01-07T06:21:19;6.30;99.90
4390;DHT22;2209;48.982;8.406;2024-01-07T06:23:41;6.30;99.90
4390;DHT22;2209;48.982;8.406;2024-01-07T06:26:04;6.30;99.90
4390;DHT22;2209;48.982;8.406;2024-01-07T06:28:26;6.30;99.90
4390;DHT22;2209;48.982;8.406;2024-01-07T06:30:48;6.30;99.90
4390;DHT22;2209;48.982;8.406;2024-01-07T06:33:10;6.30;99.90
4390;DHT22;2209;48.982;8.406;2024-01-07T06:35:35;6.30;99.90
4390;DHT22;2209;48.982;8.406;2024-01-07T06:37:58;6.30;99.90
4390;DHT22;2209;48.982;8.406;2024-01-07T06:40:20;6.30;99.90
4390;DHT22;2209;48.982;8.406;2024-01-07T06:42:43;6.30;99.90
4390;DHT22;2209;48.982;8.406;2024-01-07T06:45:06;6.30;99.90
4390;DHT22;2209;48.982;8.406;2024-01-07T06:47:28;6.20;99.90
4390;DHT22;2209;48.982;8.406;2024-01-07T06:49:50;6.20;99.90
4390;DHT22;2209;48.982;8.406;2024-01-07T06:52:13;6.20;99.90
4390;DHT22;2209;48.982;8.406;2024-01-07T06:54:37;6.20;99.90
4390;DHT22;2209;48.982;8.406;2024-01-07T06:57:00;6.20;99.90
4390;DHT22;2209;48.982;8.406;2024-01-07T06:59:22;6.20;99.90
4390;DHT22;2209;48.982;8.406;2024-01-07T07:01:44;6.30;99.90
4390;DHT22;2209;48.982;8.406;2024-01-07T07:04:06;6.30;99.90
4390;DHT22;2209;48.982;8.406;2024-01-07T07:06:28;6.20;99.90
4390;DHT22;2209;48.982;8.406;2024-01-07T07:08:51;6.20;99.90
4390;DHT22;2209;48.982;8.406;2024-01-07T07:11:13;6.20;99.90
4390;DHT22;2209;48.982;8.406;2024-01-07T07:13:36;6.20;99.90
4390;DHT22;2209;48.982;8.406;2024-01-07T07:15:59;6.30;99.90
4390;DHT22;2209;48.982;8.406;2024-01-07T07:18:21;6.30;99.90
4390;DHT22;2209;48.982;8.406;2024-01-07T07:20:43;6.30;99.90
4390;DHT22;2209;48.982;8.406;2024-01-07T07:23:05;6.20;99.90
4390;DHT22;2209;48.982;8.406;2024-01-07T07:25:29;6.20;99.90
4390;DHT22;2209;48.982;8.406;2024-01-07T07:27:51;6.20;99.90
4390;DHT22;2209;48.982;8.406;2024-01-07T07:30:13;6.10;99.90
4390;DHT22;2209;48.982;8.406;2024-01-07T07:32:39;6.20;99.90
4390;DHT22;2209;48.982;8.406;2024-01-07T07:35:01;6.10;99.90
4390;DHT22;2209;48.982;8.406;2024-01-07T07:37:23;6.10;99.90
4390;DHT22;2209;48.982;8.406;2024-01-07T07:39:46;6.10;99.90
4390;DHT22;2209;48.982;8.406;2024-01-07T07:42:09;6.10;99.90
4390;DHT22;2209;48.982;8.406;2024-01-07T07:44:31;6.10;99.90
4390;DHT22;2209;48.982;8.406;2024-01-07T07:46:53;6.10;99.90
4390;DHT22;2209;48.982;8.406;2024-01-07T07:49:15;6.10;99.90
4390;DHT22;2209;48.982;8.406;2024-01-07T07:51:38;6.10;99.90
4390;DHT22;2209;48.982;8.406;2024-01-07T07:54:00;6.10;99.90
4390;DHT22;2209;48.982;8.406;2024-01-07T07:56:23;6.20;99.90
4390;DHT22;2209;48.982;8.406;2024-01-07T07:58:46;6.10;99.90
4390;DHT22;2209;48.982;8.406;2024-01-07T08:01:09;6.20;99.90
4390;DHT22;2209;48.982;8.406;2024-01-07T08:03:31;6.20;99.90
4390;DHT22;2209;48.982;8.406;2024-01-07T08:05:53;6.20;99.90
4390;DHT22;2209;48.982;8.406;2024-01-07T08:08:15;6.20;99.90
4390;DHT22;2209;48.982;8.406;2024-01-07T08:10:38;6.20;99.90
4390;DHT22;2209;48.982;8.406;2024-01-07T08:13:00;6.20;99.90
4390;DHT22;2209;48.982;8.406;2024-01-07T08:15:23;6.10;99.90
4390;DHT22;2209;48.982;8.406;2024-01-07T08:17:46;6.10;99.90
4390;DHT22;2209;48.982;8.406;2024-01-07T08:20:09;6.10;99.90
4390;DHT22;2209;48.982;8.406;2024-01-07T08:22:32;6.10;99.90
4390;DHT22;2209;48.982;8.406;2024-01-07T08:24:54;6.10;99.90
4390;DHT22;2209;48.982;8.406;2024-01-07T08:27:16;6.20;99.90
4390;DHT22;2209;48.982;8.406;2024-01-07T08:29:38;6.20;99.90
4390;DHT22;2209;48.982;8.406;2024-01-07T08:32:01;6.20;99.90
4390;DHT22;2209;48.982;8.406;2024-01-07T08:34:23;6.30;99.90
4390;DHT22;2209;48.982;8.406;2024-01-07T08:36:45;6.20;99.90
4390;DHT22;2209;48.982;8.406;2024-01-07T08:39:07;6.20;99.90
4390;DHT22;2209;48.982;8.406;2024-01-07T08:41:29;6.20;99.90
4390;DHT22;2209;48.982;8.406;2024-01-07T08:43:51;6.20;99.90
4390;DHT22;2209;48.982;8.406;2024-01-07T08:46:13;6.20;99.90
4390;DHT22;2209;48.982;8.406;2024-01-07T08:48:37;6.20;99.90
4390;DHT22;2209;48.982;8.406;2024-01-07T08:50:59;6.30;99.90
4390;DHT22;2209;48.982;8.406;2024-01-07T08:53:21;6.20;99.90
4390;DHT22;2209;48.982;8.406;2024-01-07T08:55:43;6.20;99.90
4390;DHT22;2209;48.982;8.406;2024-01-07T08:58:05;6.20;99.90
4390;DHT22;2209;48.982;8.406;2024-01-07T09:00:28;6.20;99.90
4390;DHT22;2209;48.982;8.406;2024-01-07T09:02:52;6.20;99.90
4390;DHT22;2209;48.982;8.406;2024-01-07T09:05:15;6.20;99.90
4390;DHT22;2209;48.982;8.406;2024-01-07T09:07:38;6.20;99.90
4390;DHT22;2209;48.982;8.406;2024-01-07T09:10:00;6.20;99.90
4390;DHT22;2209;48.982;8.406;2024-01-07T09:12:22;6.20;99.90
4390;DHT22;2209;48.982;8.406;2024-01-07T09:14:44;6.20;99.90
4390;DHT22;2209;48.982;8.406;2024-01-07T09:17:06;6.20;99.90
4390;DHT22;2209;48.982;8.406;2024-01-07T09:19:28;6.20;99.90
4390;DHT22;2209;48.982;8.406;2024-01-07T09:21:52;6.20;99.90
4390;DHT22;2209;48.982;8.406;2024-01-07T09:24:14;6.20;99.90
4390;DHT22;2209;48.982;8.406;2024-01-07T09:26:37;6.20;99.90
4390;DHT22;2209;48.982;8.406;2024-01-07T09:28:59;6.20;99.90
4390;DHT22;2209;48.982;8.406;2024-01-07T09:31:21;6.20;99.90
4390;DHT22;2209;48.982;8.406;2024-01-07T09:33:43;6.20;99.90
4390;DHT22;2209;48.982;8.406;2024-01-07T09:36:07;6.30;99.90
4390;DHT22;2209;48.982;8.406;2024-01-07T09:38:31;6.30;99.90
4390;DHT22;2209;48.982;8.406;2024-01-07T09:40:53;6.30;99.90
4390;DHT22;2209;48.982;8.406;2024-01-07T09:43:15;6.30;99.90
4390;DHT22;2209;48.982;8.406;2024-01-07T09:45:38;6.30;99.90
4390;DHT22;2209;48.982;8.406;2024-01-07T09:48:04;6.20;99.90
4390;DHT22;2209;48.982;8.406;2024-01-07T09:50:26;6.30;99.90
4390;DHT22;2209;48.982;8.406;2024-01-07T09:52:48;6.30;99.90
4390;DHT22;2209;48.982;8.406;2024-01-07T09:55:25;6.30;99.90
4390;DHT22;2209;48.982;8.406;2024-01-07T09:57:48;6.30;99.90
4390;DHT22;2209;48.982;8.406;2024-01-07T10:00:12;6.30;99.90
4390;DHT22;2209;48.982;8.406;2024-01-07T10:02:35;6.30;99.90
4390;DHT22;2209;48.982;8.406;2024-01-07T10:04:57;6.30;99.90
4390;DHT22;2209;48.982;8.406;2024-01-07T10:07:19;6.30;99.90
4390;DHT22;2209;48.982;8.406;2024-01-07T10:09:41;6.30;99.90
4390;DHT22;2209;48.982;8.406;2024-01-07T10:12:06;6.30;99.90
4390;DHT22;2209;48.982;8.406;2024-01-07T10:14:29;6.30;99.90
4390;DHT22;2209;48.982;8.406;2024-01-07T10:16:51;6.30;99.90
4390;DHT22;2209;48.982;8.406;2024-01-07T10:19:19;6.40;99.90
4390;DHT22;2209;48.982;8.406;2024-01-07T10:21:41;6.30;99.90
4390;DHT22;2209;48.982;8.406;2024-01-07T10:24:10;6.30;99.90
4390;DHT22;2209;48.982;8.406;2024-01-07T10:26:32;6.30;99.90
4390;DHT22;2209;48.982;8.406;2024-01-07T10:28:56;6.40;99.90
4390;DHT22;2209;48.982;8.406;2024-01-07T10:31:18;6.30;99.90
4390;DHT22;2209;48.982;8.406;2024-01-07T10:33:44;6.40;99.90
4390;DHT22;2209;48.982;8.406;2024-01-07T10:36:06;6.40;99.90
4390;DHT22;2209;48.982;8.406;2024-01-07T10:38:28;6.40;99.90
4390;DHT22;2209;48.982;8.406;2024-01-07T10:40:52;6.40;99.90
4390;DHT22;2209;48.982;8.406;2024-01-07T10:43:17;6.40;99.90
4390;DHT22;2209;48.982;8.406;2024-01-07T10:45:40;6.50;99.90
4390;DHT22;2209;48.982;8.406;2024-01-07T10:48:04;6.50;99.90
4390;DHT22;2209;48.982;8.406;2024-01-07T10:50:29;6.50;99.90
4390;DHT22;2209;48.982;8.406;2024-01-07T10:52:58;6.60;99.90
4390;DHT22;2209;48.982;8.406;2024-01-07T10:55:26;6.60;99.90
4390;DHT22;2209;48.982;8.406;2024-01-07T10:57:50;6.60;99.90
4390;DHT22;2209;48.982;8.406;2024-01-07T11:00:13;6.60;99.90
4390;DHT22;2209;48.982;8.406;2024-01-07T11:02:47;6.60;99.90
4390;DHT22;2209;48.982;8.406;2024-01-07T11:05:16;6.60;99.90
4390;DHT22;2209;48.982;8.406;2024-01-07T11:07:41;6.60;99.90
4390;DHT22;2209;48.982;8.406;2024-01-07T11:10:08;6.60;99.90
4390;DHT22;2209;48.982;8.406;2024-01-07T11:12:32;6.50;99.90
4390;DHT22;2209;48.982;8.406;2024-01-07T11:14:55;6.50;99.90
4390;DHT22;2209;48.982;8.406;2024-01-07T11:17:43;6.50;99.90
4390;DHT22;2209;48.982;8.406;2024-01-07T11:20:07;6.50;99.90
4390;DHT22;2209;48.982;8.406;2024-01-07T11:22:35;6.50;99.90
4390;DHT22;2209;48.982;8.406;2024-01-07T11:24:57;6.50;99.90
4390;DHT22;2209;48.982;8.406;2024-01-07T11:27:21;6.50;99.90
4390;DHT22;2209;48.982;8.406;2024-01-07T11:29:43;6.50;99.90
4390;DHT22;2209;48.982;8.406;2024-01-07T11:32:06;6.40;99.90
4390;DHT22;2209;48.982;8.406;2024-01-07T11:34:42;6.40;99.90
4390;DHT22;2209;48.982;8.406;2024-01-07T11:37:10;6.40;99.90
4390;DHT22;2209;48.982;8.406;2024-01-07T11:39:33;6.50;99.90
4390;DHT22;2209;48.982;8.406;2024-01-07T11:41:56;6.50;99.90
4390;DHT22;2209;48.982;8.406;2024-01-07T11:44:18;6.50;99.90
4390;DHT22;2209;48.982;8.406;2024-01-07T11:46:40;6.50;99.90
4390;DHT22;2209;48.982;8.406;2024-01-07T11:49:02;6.50;99.90
4390;DHT22;2209;48.982;8.406;2024-01-07T11:51:27;6.50;99.90
4390;DHT22;2209;48.982;8.406;2024-01-07T11:53:51;6.50;99.90
4390;DHT22;2209;48.982;8.406;2024-01-07T11:56:13;6.50;99.90
4390;DHT22;2209;48.982;8.406;2024-01-07T11:58:35;6.60;99.90
4390;DHT22;2209;48.982;8.406;2024-01-07T12:00:57;6.50;99.90
4390;DHT22;2209;48.982;8.406;2024-01-07T12:03:19;6.50;99.90
4390;DHT22;2209;48.982;8.406;2024-01-07T12:05:41;6.50;99.90
4390;DHT22;2209;48.982;8.406;2024-01-07T12:08:05;6.50;99.90
4390;DHT22;2209;48.982;8.406;2024-01-07T12:10:27;6.60;99.90
4390;DHT22;2209;48.982;8.406;2024-01-07T12:12:50;6.50;99.90
4390;DHT22;2209;48.982;8.406;2024-01-07T12:15:12;6.50;99.90
4390;DHT22;2209;48.982;8.406;2024-01-07T12:17:34;6.50;99.90
4390;DHT22;2209;48.982;8.406;2024-01-07T12:19:56;6.50;99.90
4390;DHT22;2209;48.982;8.406;2024-01-07T12:22:19;6.50;99.90
4390;DHT22;2209;48.982;8.406;2024-01-07T12:24:43;6.50;99.90
4390;DHT22;2209;48.982;8.406;2024-01-07T12:27:05;6.40;99.90
4390;DHT22;2209;48.982;8.406;2024-01-07T12:29:28;6.40;99.90
4390;DHT22;2209;48.982;8.406;2024-01-07T12:31:51;6.40;99.90
4390;DHT22;2209;48.982;8.406;2024-01-07T12:34:14;6.40;99.90
4390;DHT22;2209;48.982;8.406;2024-01-07T12:36:36;6.40;99.90
4390;DHT22;2209;48.982;8.406;2024-01-07T12:39:01;6.40;99.90
4390;DHT22;2209;48.982;8.406;2024-01-07T12:41:25;6.40;99.90
4390;DHT22;2209;48.982;8.406;2024-01-07T12:43:47;6.40;99.90
4390;DHT22;2209;48.982;8.406;2024-01-07T12:46:09;6.40;99.90
4390;DHT22;2209;48.982;8.406;2024-01-07T12:48:31;6.40;99.90
4390;DHT22;2209;48.982;8.406;2024-01-07T12:50:53;6.40;99.90
4390;DHT22;2209;48.982;8.406;2024-01-07T12:53:15;6.50;99.90
4390;DHT22;2209;48.982;8.406;2024-01-07T12:55:38;6.50;99.90
4390;DHT22;2209;48.982;8.406;2024-01-07T12:58:01;6.50;99.90
4390;DHT22;2209;48.982;8.406;2024-01-07T13:00:23;6.50;99.90
4390;DHT22;2209;48.982;8.406;2024-01-07T13:02:46;6.40;99.90
4390;DHT22;2209;48.982;8.406;2024-01-07T13:05:08;6.40;99.90
4390;DHT22;2209;48.982;8.406;2024-01-07T13:07:30;6.40;99.90
4390;DHT22;2209;48.982;8.406;2024-01-07T13:09:55;6.40;99.90
4390;DHT22;2209;48.982;8.406;2024-01-07T13:12:17;6.40;99.90
4390;DHT22;2209;48.982;8.406;2024-01-07T13:14:42;6.40;99.90
4390;DHT22;2209;48.982;8.406;2024-01-07T13:17:04;6.40;99.90
4390;DHT22;2209;48.982;8.406;2024-01-07T13:19:30;6.40;99.90
4390;DHT22;2209;48.982;8.406;2024-01-07T13:21:52;6.40;99.90
4390;DHT22;2209;48.982;8.406;2024-01-07T13:24:16;6.40;99.90
4390;DHT22;2209;48.982;8.406;2024-01-07T13:26:38;6.30;99.90
4390;DHT22;2209;48.982;8.406;2024-01-07T13:29:02;6.40;99.90
4390;DHT22;2209;48.982;8.406;2024-01-07T13:31:26;6.40;99.90
4390;DHT22;2209;48.982;8.406;2024-01-07T13:33:49;6.40;99.90
4390;DHT22;2209;48.982;8.406;2024-01-07T13:36:11;6.40;99.90
4390;DHT22;2209;48.982;8.406;2024-01-07T13:38:33;6.40;99.90
4390;DHT22;2209;48.982;8.406;2024-01-07T13:40:56;6.40;99.90
4390;DHT22;2209;48.982;8.406;2024-01-07T13:43:18;6.30;99.90
4390;DHT22;2209;48.982;8.406;2024-01-07T13:45:40;6.40;99.90
4390;DHT22;2209;48.982;8.406;2024-01-07T13:48:04;6.30;99.90
4390;DHT22;2209;48.982;8.406;2024-01-07T13:50:28;6.40;99.90
4390;DHT22;2209;48.982;8.406;2024-01-07T13:52:50;6.40;99.90
4390;DHT22;2209;48.982;8.406;2024-01-07T13:55:12;6.40;99.90
4390;DHT22;2209;48.982;8.406;2024-01-07T13:57:35;6.40;99.90
4390;DHT22;2209;48.982;8.406;2024-01-07T13:59:57;6.40;99.90
4390;DHT22;2209;48.982;8.406;2024-01-07T14:02:19;6.40;99.90
4390;DHT22;2209;48.982;8.406;2024-01-07T14:04:44;6.40;99.90
4390;DHT22;2209;48.982;8.406;2024-01-07T14:07:06;6.40;99.90
4390;DHT22;2209;48.982;8.406;2024-01-07T14:09:28;6.40;99.90
4390;DHT22;2209;48.982;8.406;2024-01-07T14:11:52;6.40;99.90
4390;DHT22;2209;48.982;8.406;2024-01-07T14:14:14;6.40;99.90
4390;DHT22;2209;48.982;8.406;2024-01-07T14:16:36;6.40;99.90
4390;DHT22;2209;48.982;8.406;2024-01-07T14:18:58;6.40;99.90
4390;DHT22;2209;48.982;8.406;2024-01-07T14:21:21;6.30;99.90
4390;DHT22;2209;48.982;8.406;2024-01-07T14:23:43;6.30;99.90
4390;DHT22;2209;48.982;8.406;2024-01-07T14:26:05;6.30;99.90
4390;DHT22;2209;48.982;8.406;2024-01-07T14:28:27;6.30;99.90
4390;DHT22;2209;48.982;8.406;2024-01-07T14:30:49;6.30;99.90
4390;DHT22;2209;48.982;8.406;2024-01-07T14:33:11;6.20;99.90
4390;DHT22;2209;48.982;8.406;2024-01-07T14:35:34;6.20;99.90
4390;DHT22;2209;48.982;8.406;2024-01-07T14:37:58;6.20;99.90
4390;DHT22;2209;48.982;8.406;2024-01-07T14:40:20;6.20;99.90
4390;DHT22;2209;48.982;8.406;2024-01-07T14:42:42;6.20;99.90
4390;DHT22;2209;48.982;8.406;2024-01-07T14:45:05;6.20;99.90
4390;DHT22;2209;48.982;8.406;2024-01-07T14:47:27;6.20;99.90
4390;DHT22;2209;48.982;8.406;2024-01-07T14:49:49;6.20;99.90
4390;DHT22;2209;48.982;8.406;2024-01-07T14:52:11;6.20;99.90
4390;DHT22;2209;48.982;8.406;2024-01-07T14:54:34;6.20;99.90
4390;DHT22;2209;48.982;8.406;2024-01-07T14:56:58;6.20;99.90
4390;DHT22;2209;48.982;8.406;2024-01-07T14:59:20;6.20;99.90
4390;DHT22;2209;48.982;8.406;2024-01-07T15:01:42;6.10;99.90
4390;DHT22;2209;48.982;8.406;2024-01-07T15:04:04;6.10;99.90
4390;DHT22;2209;48.982;8.406;2024-01-07T15:06:26;6.20;99.90
4390;DHT22;2209;48.982;8.406;2024-01-07T15:08:48;6.20;99.90
4390;DHT22;2209;48.982;8.406;2024-01-07T15:11:13;6.20;99.90
4390;DHT22;2209;48.982;8.406;2024-01-07T15:13:36;6.20;99.90
4390;DHT22;2209;48.982;8.406;2024-01-07T15:16:00;6.20;99.90
4390;DHT22;2209;48.982;8.406;2024-01-07T15:18:22;6.10;99.90
4390;DHT22;2209;48.982;8.406;2024-01-07T15:20:44;6.10;99.90
4390;DHT22;2209;48.982;8.406;2024-01-07T15:23:06;6.00;99.90
4390;DHT22;2209;48.982;8.406;2024-01-07T15:25:28;6.00;99.90
4390;DHT22;2209;48.982;8.406;2024-01-07T15:27:52;6.00;99.90
4390;DHT22;2209;48.982;8.406;2024-01-07T15:30:14;6.00;99.90
4390;DHT22;2209;48.982;8.406;2024-01-07T15:32:36;5.90;99.90
4390;DHT22;2209;48.982;8.406;2024-01-07T15:34:58;5.90;99.90
4390;DHT22;2209;48.982;8.406;2024-01-07T15:37:21;5.90;99.90
4390;DHT22;2209;48.982;8.406;2024-01-07T15:39:43;5.90;99.90
4390;DHT22;2209;48.982;8.406;2024-01-07T15:42:06;5.90;99.90
4390;DHT22;2209;48.982;8.406;2024-01-07T15:44:29;5.90;99.90
4390;DHT22;2209;48.982;8.406;2024-01-07T15:46:52;5.90;99.90